Airfield :
LOGIN :

Register | Disclaimer

   EN    FR    IT 

 










Legend :    VFR   Marginal VFR   IFR   Intensive IFR   Very Intensive IFR
Visi :
Ceiling :
>= 8 km
>= 3000ft
5 to 8 km
1000 to 3000 ft
1500m to 5 km
500 to 1000 ft
800 to 1500m
200 to 500 ft
< 800m
< 200 ft
Symbols :   Thunderstorms  Fog  Heavy snow  Heavy precipitations  Wind > 20 kt
SIGMETs :     Misc.  Thunderstorms  Icing  Turbulence  Mountain Waves  Volcanic Ashes






- Airport Elevation : 12 ft
- IATA code : NCE


LFMN - Nice

CURRENT METAR :
  • 180500Z 33010KT CAVOK 09/01 Q1014 NOSIG

EXPIRED METARs :
  • 180430Z 33011KT CAVOK 09/02 Q1014 NOSIG
  • 180400Z 33011KT CAVOK 09/02 Q1014 NOSIG
  • 180330Z 33008KT CAVOK 10/02 Q1014 NOSIG
  • 180300Z 33007KT CAVOK 10/02 Q1014 NOSIG
  • 180230Z 33009KT CAVOK 10/02 Q1014 NOSIG

TAF TAF LFMN
Valid from the 18 at 03:00 until the 19 at 09:00 UTC


180200Z 1803/1909 34010KT CAVOK
BECMG 1808/1810 16010KT
BECMG 1811/1813 FEW050TCU BKN070
TEMPO 1814/1818 22010KT SHRA FEW040CB
PROB30
TEMPO 1814/1817 VRB15G25KT TSRA SCT030CB
BECMG 1818/1820 34010KT NSC
BECMG 1907/1909 18006KT
ATIS : +33 4 93 17 21 16



MET'MAP, your aeronautical weather chart ! - Copyright ORBIFLY December 2007 - Disclaimer

ORBIFLY MET'MAP TEAM :

Programming & Development : Alexandra Zaïnal
Concept & original design : Baudouin d'Aumeries
Assistance for programming : Marc-Olivier Méhu
Technical & hardware support : Manuel Goepfert

Contact : metmap@orbifly.com




SOURCES & CREDITS :

   NOAA